Observation data for Dimmitt on 03/10/2018      Previous  Date  Next       Current Mesonet Observations  Soil Data  Daily Summary Page  Observations in Plain Language
KDMS 100600Z 12009KT 08/M11 A2984 RMK A01 T00811106  RH  025%=      5-min Rain = 0
KDMS 100605Z 12008KT 08/M11 A2984 RMK A01 T00791105  RH  026%=      5-min Rain = 0
KDMS 100610Z 12008KT 08/M10 A2984 RMK A01 T00791102  RH  026%=      5-min Rain = 0
KDMS 100615Z 12008KT 08/M10 A2984 RMK A01 T00801099  RH  027%=      5-min Rain = 0
KDMS 100620Z 12007KT 08/M10 A2984 RMK A01 T00791098  RH  027%=      5-min Rain = 0
KDMS 100625Z 12007KT 08/M10 A2984 RMK A01 T00761097  RH  028%=      5-min Rain = 0
KDMS 100630Z 13007KT 07/M10 A2984 RMK A01 T00731097  RH  029%=      5-min Rain = 0
KDMS 100635Z 13008KT 07/M10 A2984 RMK A01 T00661099  RH  029%=      5-min Rain = 0
KDMS 100640Z 14008KT 06/M10 A2984 RMK A01 T00631099  RH  030%=      5-min Rain = 0
KDMS 100645Z 14008KT 06/M09 A2984 RMK A01 T00581090  RH  033%=      5-min Rain = 0
KDMS 100650Z 14008KT 06/M09 A2984 RMK A01 T00561093  RH  033%=      5-min Rain = 0
KDMS 100655Z 14007KT 06/M10 A2984 RMK A01 T00561096  RH  032%=      5-min Rain = 0
KDMS 100700Z 13007KT 06/M10 A2984 RMK A01 T00591095  RH  032%=      5-min Rain = 0
KDMS 100705Z 14006KT 06/M10 A2984 RMK A01 T00581096  RH  032%=      5-min Rain = 0
KDMS 100710Z 14007KT 05/M10 A2983 RMK A01 T00531095  RH  033%=      5-min Rain = 0
KDMS 100715Z 14008KT 05/M10 A2983 RMK A01 T00511095  RH  034%=      5-min Rain = 0
KDMS 100720Z 15008KT 05/M10 A2983 RMK A01 T00531095  RH  033%=      5-min Rain = 0
KDMS 100725Z 15008KT 05/M10 A2983 RMK A01 T00501095  RH  034%=      5-min Rain = 0
KDMS 100730Z 15008KT 05/M10 A2983 RMK A01 T00501096  RH  034%=      5-min Rain = 0
KDMS 100735Z 16007KT 04/M09 A2983 RMK A01 T00431091  RH  037%=      5-min Rain = 0
KDMS 100740Z 16008KT 05/M09 A2983 RMK A01 T00451087  RH  038%=      5-min Rain = 0
KDMS 100745Z 16008KT 05/M09 A2983 RMK A01 T00471086  RH  037%=      5-min Rain = 0
KDMS 100750Z 16008KT 05/M09 A2983 RMK A01 T00481088  RH  037%=      5-min Rain = 0
KDMS 100755Z 16008KT 05/M09 A2983 RMK A01 T00481088  RH  036%=      5-min Rain = 0
KDMS 100800Z 16007KT 05/M08 A2983 RMK A01 T00491082  RH  038%=      5-min Rain = 0
KDMS 100805Z 17006KT 05/M08 A2983 RMK A01 T00491078  RH  039%=      5-min Rain = 0
KDMS 100810Z 18006KT 05/M08 A2983 RMK A01 T00481079  RH  039%=      5-min Rain = 0
KDMS 100815Z 18007KT 05/M09 A2983 RMK A01 T00471085  RH  038%=      5-min Rain = 0
KDMS 100820Z 18006KT 05/M09 A2982 RMK A01 T00461086  RH  038%=      5-min Rain = 0
KDMS 100825Z 19008KT 05/M09 A2982 RMK A01 T00451085  RH  038%=      5-min Rain = 0
KDMS 100830Z 19009KT 05/M08 A2982 RMK A01 T00541081  RH  037%=      5-min Rain = 0
KDMS 100835Z 20008KT 06/M08 A2983 RMK A01 T00591082  RH  036%=      5-min Rain = 0
KDMS 100840Z 21007KT 06/M08 A2983 RMK A01 T00601078  RH  036%=      5-min Rain = 0
KDMS 100845Z 20007KT 06/M08 A2982 RMK A01 T00581078  RH  037%=      5-min Rain = 0
KDMS 100850Z 19008KT 06/M08 A2982 RMK A01 T00571080  RH  037%=      5-min Rain = 0
KDMS 100855Z 20009KT 06/M08 A2982 RMK A01 T00581076  RH  038%=      5-min Rain = 0
KDMS 100900Z 22009KT 06/M07 A2982 RMK A01 T00601071  RH  038%=      5-min Rain = 0
KDMS 100905Z 21010KT 06/M07 A2982 RMK A01 T00621071  RH  038%=      5-min Rain = 0
KDMS 100910Z 21010KT 07/M07 A2981 RMK A01 T00651073  RH  037%=      5-min Rain = 0
KDMS 100915Z 20008KT 07/M08 A2981 RMK A01 T00671075  RH  036%=      5-min Rain = 0
KDMS 100920Z 22008KT 07/M07 A2981 RMK A01 T00661073  RH  036%=      5-min Rain = 0
KDMS 100925Z 22008KT 07/M08 A2981 RMK A01 T00671076  RH  035%=      5-min Rain = 0
KDMS 100930Z 22009KT 07/M08 A2981 RMK A01 T00681075  RH  035%=      5-min Rain = 0
KDMS 100935Z 22009KT 07/M08 A2981 RMK A01 T00681076  RH  035%=      5-min Rain = 0
KDMS 100940Z 23009KT 07/M07 A2981 RMK A01 T00671074  RH  036%=      5-min Rain = 0
KDMS 100945Z 22009KT 07/M07 A2982 RMK A01 T00661074  RH  036%=      5-min Rain = 0
KDMS 100950Z 22008KT 07/M08 A2982 RMK A01 T00661075  RH  036%=      5-min Rain = 0
KDMS 100955Z 22009KT 06/M07 A2982 RMK A01 T00641074  RH  036%=      5-min Rain = 0
KDMS 101000Z 22012KT 07/M08 A2981 RMK A01 T00731078  RH  033%=      5-min Rain = 0
KDMS 101005Z 22012KT 08/M08 A2981 RMK A01 T00781078  RH  032%=      5-min Rain = 0
KDMS 101010Z 22013KT 08/M08 A2982 RMK A01 T00791078  RH  032%=      5-min Rain = 0
KDMS 101015Z 22012KT 08/M08 A2982 RMK A01 T00771078  RH  032%=      5-min Rain = 0
KDMS 101020Z 23012KT 08/M08 A2982 RMK A01 T00771079  RH  032%=      5-min Rain = 0
KDMS 101025Z 23011KT 08/M08 A2982 RMK A01 T00751078  RH  033%=      5-min Rain = 0
KDMS 101030Z 24009KT 07/M08 A2982 RMK A01 T00731080  RH  033%=      5-min Rain = 0
KDMS 101035Z 23010KT 07/M08 A2982 RMK A01 T00691083  RH  033%=      5-min Rain = 0
KDMS 101040Z 24008KT 07/M08 A2982 RMK A01 T00681079  RH  034%=      5-min Rain = 0
KDMS 101045Z 24007KT 07/M08 A2982 RMK A01 T00681083  RH  033%=      5-min Rain = 0
KDMS 101050Z 28005KT 06/M08 A2983 RMK A01 T00631080  RH  035%=      5-min Rain = 0
KDMS 101055Z 28004KT 05/M08 A2982 RMK A01 T00501079  RH  038%=      5-min Rain = 0
KDMS 101100Z 28004KT 05/M08 A2983 RMK A01 T00521080  RH  038%=      5-min Rain = 0
KDMS 101105Z 27004KT 05/M08 A2983 RMK A01 T00541080  RH  037%=      5-min Rain = 0
KDMS 101110Z 26004KT 06/M08 A2983 RMK A01 T00551081  RH  037%=      5-min Rain = 0
KDMS 101115Z 27004KT 06/M08 A2983 RMK A01 T00551082  RH  037%=      5-min Rain = 0
KDMS 101120Z 32005KT 05/M08 A2983 RMK A01 T00511078  RH  039%=      5-min Rain = 0
KDMS 101125Z 32005KT 04/M08 A2983 RMK A01 T00431081  RH  040%=      5-min Rain = 0
KDMS 101130Z 30005KT 04/M08 A2983 RMK A01 T00371082  RH  041%=      5-min Rain = 0
KDMS 101135Z 29006KT 03/M08 A2983 RMK A01 T00291082  RH  044%=      5-min Rain = 0
KDMS 101140Z 27007KT 03/M08 A2983 RMK A01 T00261082  RH  045%=      5-min Rain = 0
KDMS 101145Z 26005KT 03/M08 A2983 RMK A01 T00331082  RH  042%=      5-min Rain = 0
KDMS 101150Z 26005KT 04/M08 A2983 RMK A01 T00351084  RH  042%=      5-min Rain = 0
KDMS 101155Z 26007KT 04/M08 A2983 RMK A01 T00391083  RH  041%=      5-min Rain = 0
KDMS 101200Z 26008KT 05/M08 A2983 RMK A01 T00491082  RH  038%=      5-min Rain = 0
KDMS 101205Z 25009KT 06/M08 A2983 RMK A01 T00581082  RH  036%=      5-min Rain = 0
KDMS 101210Z 25010KT 07/M08 A2983 RMK A01 T00651083  RH  034%=      5-min Rain = 0
KDMS 101215Z 24012KT 07/M09 A2983 RMK A01 T00711086  RH  032%=      5-min Rain = 0
KDMS 101220Z 24010KT 07/M09 A2983 RMK A01 T00691087  RH  032%=      5-min Rain = 0
KDMS 101225Z 24010KT 06/M09 A2983 RMK A01 T00631087  RH  033%=      5-min Rain = 0
KDMS 101230Z 24010KT 06/M09 A2983 RMK A01 T00571087  RH  035%=      5-min Rain = 0
KDMS 101235Z 24010KT 05/M09 A2983 RMK A01 T00501086  RH  037%=      5-min Rain = 0
KDMS 101240Z 25010KT 05/M09 A2983 RMK A01 T00491086  RH  037%=      5-min Rain = 0
KDMS 101245Z 25010KT 06/M09 A2983 RMK A01 T00551085  RH  036%=      5-min Rain = 0
KDMS 101250Z 24011KT 06/M08 A2983 RMK A01 T00581084  RH  035%=      5-min Rain = 0
KDMS 101255Z 25010KT 06/M09 A2983 RMK A01 T00551085  RH  036%=      5-min Rain = 0
KDMS 101300Z 25010KT 06/M09 A2983 RMK A01 T00581085  RH  035%=      5-min Rain = 0
KDMS 101305Z 25009KT 06/M09 A2983 RMK A01 T00621085  RH  034%=      5-min Rain = 0
KDMS 101310Z 24009KT 06/M09 A2983 RMK A01 T00591086  RH  034%=      5-min Rain = 0
KDMS 101315Z 24010KT 06/M09 A2983 RMK A01 T00581085  RH  035%=      5-min Rain = 0
KDMS 101320Z 24010KT 06/M09 A2983 RMK A01 T00591085  RH  035%=      5-min Rain = 0
KDMS 101325Z 24010KT 06/M09 A2983 RMK A01 T00581085  RH  035%=      5-min Rain = 0
KDMS 101330Z 24010KT 06/M08 A2983 RMK A01 T00601084  RH  035%=      5-min Rain = 0
KDMS 101335Z 24010KT 06/M08 A2983 RMK A01 T00641084  RH  034%=      5-min Rain = 0
KDMS 101340Z 24011KT 07/M09 A2983 RMK A01 T00711085  RH  032%=      5-min Rain = 0
KDMS 101345Z 24009KT 07/M09 A2983 RMK A01 T00701085  RH  032%=      5-min Rain = 0
KDMS 101350Z 23009KT 07/M08 A2982 RMK A01 T00681084  RH  033%=      5-min Rain = 0
KDMS 101355Z 24008KT 07/M09 A2983 RMK A01 T00711085  RH  032%=      5-min Rain = 0
KDMS 101400Z 24009KT 08/M09 A2983 RMK A01 T00791088  RH  030%=      5-min Rain = 0
KDMS 101405Z 24009KT 09/M09 A2983 RMK A01 T00851088  RH  028%=      5-min Rain = 0
KDMS 101410Z 24009KT 09/M09 A2983 RMK A01 T00861086  RH  029%=      5-min Rain = 0
KDMS 101415Z 24009KT 09/M09 A2984 RMK A01 T00881087  RH  028%=      5-min Rain = 0
KDMS 101420Z 24009KT 09/M09 A2984 RMK A01 T00911085  RH  028%=      5-min Rain = 0
KDMS 101425Z 24009KT 09/M08 A2984 RMK A01 T00931084  RH  028%=      5-min Rain = 0
KDMS 101430Z 25009KT 10/M08 A2984 RMK A01 T00971084  RH  027%=      5-min Rain = 0
KDMS 101435Z 25009KT 10/M09 A2984 RMK A01 T01041090  RH  025%=      5-min Rain = 0
KDMS 101440Z 25009KT 11/M09 A2984 RMK A01 T01081092  RH  024%=      5-min Rain = 0
KDMS 101445Z 25008KT 11/M10 A2984 RMK A01 T01131095  RH  022%=      5-min Rain = 0
KDMS 101450Z 25007KT 12/M09 A2984 RMK A01 T01171093  RH  022%=      5-min Rain = 0
KDMS 101455Z 25006KT 12/M09 A2984 RMK A01 T01201090  RH  022%=      5-min Rain = 0
KDMS 101500Z 26007KT 13/M09 A2984 RMK A01 T01251088  RH  022%=      5-min Rain = 0
KDMS 101505Z 26007KT 13/M09 A2984 RMK A01 T01341091  RH  020%=      5-min Rain = 0
KDMS 101510Z 27008KT 15/M10 A2984 RMK A01 T01461099  RH  017%=      5-min Rain = 0
KDMS 101515Z 28009KT 16/M11 A2984 RMK A01 T01581107  RH  015%=      5-min Rain = 0
KDMS 101520Z 29008KT 17/M11 A2985 RMK A01 T01681111  RH  014%=      5-min Rain = 0
KDMS 101525Z 30010KT 17/M12 A2985 RMK A01 T01741115  RH  013%=      5-min Rain = 0
KDMS 101530Z 29011KT 18/M12 A2985 RMK A01 T01751117  RH  012%=      5-min Rain = 0
KDMS 101535Z 29011KT 18/M12 A2985 RMK A01 T01771115  RH  012%=      5-min Rain = 0
KDMS 101540Z 30010KT 18/M12 A2985 RMK A01 T01811116  RH  012%=      5-min Rain = 0
KDMS 101545Z 30010KT 19/M12 A2985 RMK A01 T01851118  RH  012%=      5-min Rain = 0
KDMS 101550Z 29010KT 19/M12 A2985 RMK A01 T01881120  RH  011%=      5-min Rain = 0
KDMS 101555Z 28010KT 19/M12 A2985 RMK A01 T01931121  RH  011%=      5-min Rain = 0
KDMS 101600Z 29011KT 20/M12 A2985 RMK A01 T01961122  RH  010%=      5-min Rain = 0
KDMS 101605Z 30011KT 20/M11 A2985 RMK A01 T01981114  RH  011%=      5-min Rain = 0
KDMS 101610Z 30013KT 20/M12 A2985 RMK A01 T02021118  RH  010%=      5-min Rain = 0
KDMS 101615Z 29014KT 20/M12 A2985 RMK A01 T02031123  RH  010%=      5-min Rain = 0
KDMS 101620Z 29013G18KT 21/M13 A2985 RMK A01 T02051125  RH  010%=      5-min Rain = 0
KDMS 101625Z 29012G17KT 21/M12 A2985 RMK A01 T02091118  RH  010%=      5-min Rain = 0
KDMS 101630Z 30014KT 21/M12 A2985 RMK A01 T02141124  RH  009%=      5-min Rain = 0
KDMS 101635Z 29018G24KT 22/M14 A2985 RMK A01 T02161136  RH  008%=      5-min Rain = 0
KDMS 101640Z 30018G23KT 22/M14 A2984 RMK A01 T02161140  RH  008%=      5-min Rain = 0
KDMS 101645Z 30019G25KT 22/M14 A2984 RMK A01 T02171138  RH  008%=      5-min Rain = 0
KDMS 101650Z 30018G23KT 22/M13 A2984 RMK A01 T02201133  RH  008%=      5-min Rain = 0
KDMS 101655Z 31017G22KT 22/M13 A2984 RMK A01 T02221132  RH  008%=      5-min Rain = 0
KDMS 101700Z 32019G26KT 22/M14 A2984 RMK A01 T02221136  RH  008%=      5-min Rain = 0
KDMS 101705Z 31018G25KT 22/M14 A2984 RMK A01 T02241136  RH  008%=      5-min Rain = 0
KDMS 101710Z 31019KT 23/M14 A2984 RMK A01 T02251137  RH  008%=      5-min Rain = 0
KDMS 101715Z 30018G23KT 23/M14 A2984 RMK A01 T02261137  RH  008%=      5-min Rain = 0
KDMS 101720Z 30016G23KT 23/M14 A2984 RMK A01 T02271137  RH  008%=      5-min Rain = 0
KDMS 101725Z 31016G22KT 23/M14 A2984 RMK A01 T02291136  RH  008%=      5-min Rain = 0
KDMS 101730Z 31019G24KT 23/M14 A2984 RMK A01 T02291136  RH  008%=      5-min Rain = 0
KDMS 101735Z 31016G22KT 23/M14 A2984 RMK A01 T02301136  RH  008%=      5-min Rain = 0
KDMS 101740Z 30017G24KT 23/M14 A2984 RMK A01 T02281138  RH  008%=      5-min Rain = 0
KDMS 101745Z 31017G23KT 23/M14 A2984 RMK A01 T02281139  RH  007%=      5-min Rain = 0
KDMS 101750Z 31018KT 23/M13 A2984 RMK A01 T02321130  RH  008%=      5-min Rain = 0
KDMS 101755Z 31017G23KT 23/M14 A2984 RMK A01 T02311136  RH  008%=      5-min Rain = 0
KDMS 101800Z 32016G21KT 23/M13 A2984 RMK A01 T02291134  RH  008%=      5-min Rain = 0
KDMS 101805Z 31017G22KT 23/M14 A2984 RMK A01 T02301140  RH  007%=      5-min Rain = 0
KDMS 101810Z 32016G21KT 23/M13 A2984 RMK A01 T02311132  RH  008%=      5-min Rain = 0
KDMS 101815Z 30016G24KT 23/M14 A2984 RMK A01 T02301140  RH  007%=      5-min Rain = 0
KDMS 101820Z 31016G24KT 23/M14 A2984 RMK A01 T02311139  RH  007%=      5-min Rain = 0
KDMS 101825Z 30014G20KT 23/M14 A2984 RMK A01 T02341136  RH  007%=      5-min Rain = 0
KDMS 101830Z 31016G24KT 24/M13 A2984 RMK A01 T02351132  RH  008%=      5-min Rain = 0
KDMS 101835Z 31014G22KT 24/M13 A2984 RMK A01 T02351133  RH  008%=      5-min Rain = 0
KDMS 101840Z 31013G22KT 23/M13 A2984 RMK A01 T02341132  RH  008%=      5-min Rain = 0
KDMS 101845Z 32015G22KT 23/M13 A2983 RMK A01 T02341127  RH  008%=      5-min Rain = 0
KDMS 101850Z 31014G20KT 24/M13 A2983 RMK A01 T02361131  RH  008%=      5-min Rain = 0
KDMS 101855Z 31016G25KT 23/M13 A2982 RMK A01 T02341127  RH  008%=      5-min Rain = 0
KDMS 101900Z 33015G20KT 24/M13 A2982 RMK A01 T02351126  RH  008%=      5-min Rain = 0
KDMS 101905Z 32013G19KT 23/M13 A2982 RMK A01 T02341127  RH  008%=      5-min Rain = 0
KDMS 101910Z 33015G20KT 24/M13 A2982 RMK A01 T02351127  RH  008%=      5-min Rain = 0
KDMS 101915Z 31016G23KT 24/M13 A2982 RMK A01 T02351130  RH  008%=      5-min Rain = 0
KDMS 101920Z 31010G15KT 23/M13 A2981 RMK A01 T02341130  RH  008%=      5-min Rain = 0
KDMS 101925Z 31012G18KT 24/M13 A2981 RMK A01 T02391125  RH  008%=      5-min Rain = 0
KDMS 101930Z 31015G23KT 24/M13 A2981 RMK A01 T02391130  RH  008%=      5-min Rain = 0
KDMS 101935Z 30012G17KT 24/M13 A2981 RMK A01 T02361132  RH  008%=      5-min Rain = 0
KDMS 101940Z 30009G14KT 24/M13 A298 RMK A01 T02381128  RH  008%=      5-min Rain = 0
KDMS 101945Z 31015G23KT 24/M13 A298 RMK A01 T02411128  RH  008%=      5-min Rain = 0
KDMS 101950Z 30012G18KT 24/M13 A298 RMK A01 T02371131  RH  008%=      5-min Rain = 0
KDMS 101955Z 31011G16KT 24/M13 A2979 RMK A01 T02391127  RH  008%=      5-min Rain = 0
KDMS 102000Z 32016G21KT 25/M12 A2979 RMK A01 T02451118  RH  008%=      5-min Rain = 0
KDMS 102005Z 29014G21KT 24/M13 A2979 RMK A01 T02421127  RH  008%=      5-min Rain = 0
KDMS 102010Z 31008G15KT 24/M13 A2979 RMK A01 T02411126  RH  008%=      5-min Rain = 0
KDMS 102015Z 30014G21KT 25/M13 A2979 RMK A01 T02471126  RH  007%=      5-min Rain = 0
KDMS 102020Z 32012G18KT 24/M13 A2979 RMK A01 T02421126  RH  008%=      5-min Rain = 0
KDMS 102025Z 30011G16KT 24/M13 A2979 RMK A01 T02411131  RH  007%=      5-min Rain = 0
KDMS 102030Z 32013G21KT 24/M12 A2979 RMK A01 T02431123  RH  008%=      5-min Rain = 0
KDMS 102035Z 33013G20KT 24/M12 A2978 RMK A01 T02441119  RH  008%=      5-min Rain = 0
KDMS 102040Z 34012G21KT 24/M12 A2978 RMK A01 T02441124  RH  008%=      5-min Rain = 0
KDMS 102045Z 33013G19KT 25/M12 A2978 RMK A01 T02451123  RH  008%=      5-min Rain = 0
KDMS 102050Z 31012G18KT 24/M13 A2978 RMK A01 T02441127  RH  007%=      5-min Rain = 0
KDMS 102055Z 30013G19KT 24/M13 A2978 RMK A01 T02431127  RH  008%=      5-min Rain = 0
KDMS 102100Z 32015G20KT 25/M12 A2978 RMK A01 T02451122  RH  008%=      5-min Rain = 0
KDMS 102105Z 30009G14KT 24/M13 A2978 RMK A01 T02411130  RH  007%=      5-min Rain = 0
KDMS 102110Z 31010G16KT 24/M13 A2978 RMK A01 T02421129  RH  007%=      5-min Rain = 0
KDMS 102115Z 30011G17KT 25/M13 A2978 RMK A01 T02471126  RH  007%=      5-min Rain = 0
KDMS 102120Z 29011G17KT 25/M13 A2978 RMK A01 T02461128  RH  007%=      5-min Rain = 0
KDMS 102125Z 30010G15KT 24/M13 A2978 RMK A01 T02441129  RH  007%=      5-min Rain = 0
KDMS 102130Z 30009G14KT 25/M13 A2978 RMK A01 T02471126  RH  007%=      5-min Rain = 0
KDMS 102135Z 30007G12KT 24/M13 A2978 RMK A01 T02431131  RH  007%=      5-min Rain = 0
KDMS 102140Z 29009KT 25/M13 A2977 RMK A01 T02461126  RH  008%=      5-min Rain = 0
KDMS 102145Z 31007G12KT 24/M13 A2977 RMK A01 T02421130  RH  007%=      5-min Rain = 0
KDMS 102150Z 32007KT 24/M13 A2978 RMK A01 T02411129  RH  008%=      5-min Rain = 0
KDMS 102155Z 33008KT 24/M13 A2977 RMK A01 T02391128  RH  008%=      5-min Rain = 0
KDMS 102200Z 29009KT 24/M13 A2977 RMK A01 T02361129  RH  008%=      5-min Rain = 0
KDMS 102205Z 30007G12KT 24/M13 A2977 RMK A01 T02351133  RH  008%=      5-min Rain = 0
KDMS 102210Z 32009G15KT 24/M12 A2977 RMK A01 T02361120  RH  008%=      5-min Rain = 0
KDMS 102215Z 32006KT 24/M12 A2977 RMK A01 T02431124  RH  008%=      5-min Rain = 0
KDMS 102220Z 31006KT 24/M12 A2977 RMK A01 T02431124  RH  008%=      5-min Rain = 0
KDMS 102225Z 32009KT 25/M12 A2977 RMK A01 T02461117  RH  008%=      5-min Rain = 0
KDMS 102230Z 32006KT 24/M13 A2978 RMK A01 T02431127  RH  008%=      5-min Rain = 0
KDMS 102235Z 33005KT 24/M13 A2978 RMK A01 T02411129  RH  008%=      5-min Rain = 0
KDMS 102240Z 34006KT 24/M13 A2978 RMK A01 T02391128  RH  008%=      5-min Rain = 0
KDMS 102245Z 35008KT 24/M13 A2978 RMK A01 T02381129  RH  008%=      5-min Rain = 0
KDMS 102250Z 35008KT 24/M13 A2978 RMK A01 T02351128  RH  008%=      5-min Rain = 0
KDMS 102255Z 35009KT 24/M13 A2978 RMK A01 T02351129  RH  008%=      5-min Rain = 0
KDMS 102300Z 35007KT 23/M13 A2978 RMK A01 T02331129  RH  008%=      5-min Rain = 0
KDMS 102305Z 34008KT 23/M13 A2978 RMK A01 T02331126  RH  008%=      5-min Rain = 0
KDMS 102310Z 35008KT 23/M13 A2978 RMK A01 T02321127  RH  008%=      5-min Rain = 0
KDMS 102315Z 35009KT 23/M13 A2978 RMK A01 T02301126  RH  008%=      5-min Rain = 0
KDMS 102320Z 35008KT 23/M13 A2979 RMK A01 T02291131  RH  008%=      5-min Rain = 0
KDMS 102325Z 01008KT 23/M13 A2979 RMK A01 T02281125  RH  008%=      5-min Rain = 0
KDMS 102330Z 01008KT 23/M13 A2979 RMK A01 T02261127  RH  008%=      5-min Rain = 0
KDMS 102335Z 01008KT 23/M12 A2979 RMK A01 T02251123  RH  009%=      5-min Rain = 0
KDMS 102340Z 00007KT 22/M12 A298 RMK A01 T02231124  RH  009%=      5-min Rain = 0
KDMS 102345Z 36006KT 22/M12 A298 RMK A01 T02211122  RH  009%=      5-min Rain = 0
KDMS 102350Z 36007KT 22/M13 A298 RMK A01 T02181125  RH  009%=      5-min Rain = 0
KDMS 102355Z 01007KT 22/M12 A298 RMK A01 T02151123  RH  009%=      5-min Rain = 0
KDMS 110000Z 02006KT 21/M12 A298 RMK A01 T02121119  RH  010%=      5-min Rain = 0
KDMS 110005Z 02005KT 21/M11 A298 RMK A01 T02071108  RH  011%=      5-min Rain = 0
KDMS 110010Z 02005KT 20/M10 A298 RMK A01 T02011100  RH  012%=      5-min Rain = 0
KDMS 110015Z 02007KT 20/M11 A298 RMK A01 T01951105  RH  012%=      5-min Rain = 0
KDMS 110020Z 02007KT 19/M11 A298 RMK A01 T01921105  RH  012%=      5-min Rain = 0
KDMS 110025Z 03006KT 19/M11 A298 RMK A01 T01871106  RH  013%=      5-min Rain = 0
KDMS 110030Z 03006KT 18/M10 A298 RMK A01 T01841103  RH  013%=      5-min Rain = 0
KDMS 110035Z 03005KT 18/M10 A2981 RMK A01 T01791097  RH  014%=      5-min Rain = 0
KDMS 110040Z 03005KT 18/M10 A2981 RMK A01 T01761100  RH  014%=      5-min Rain = 0
KDMS 110045Z 02006KT 18/M12 A2981 RMK A01 T01781122  RH  012%=      5-min Rain = 0
KDMS 110050Z 02006KT 18/M13 A2981 RMK A01 T01781128  RH  011%=      5-min Rain = 0
KDMS 110055Z 02007KT 18/M13 A2982 RMK A01 T01751125  RH  012%=      5-min Rain = 0
KDMS 110100Z 03012KT 17/M12 A2982 RMK A01 T01721118  RH  013%=      5-min Rain = 0
KDMS 110105Z 04012KT 18/M10 A2983 RMK A01 T01761104  RH  014%=      5-min Rain = 0
KDMS 110110Z 04012KT 18/M10 A2983 RMK A01 T01761101  RH  014%=      5-min Rain = 0
KDMS 110115Z 04011KT 17/M10 A2983 RMK A01 T01731102  RH  014%=      5-min Rain = 0
KDMS 110120Z 04011KT 17/M10 A2984 RMK A01 T01701100  RH  015%=      5-min Rain = 0
KDMS 110125Z 04010KT 17/M10 A2984 RMK A01 T01661100  RH  015%=      5-min Rain = 0
KDMS 110130Z 04009KT 16/M10 A2984 RMK A01 T01611099  RH  016%=      5-min Rain = 0
KDMS 110135Z 03008KT 16/M09 A2984 RMK A01 T01561093  RH  017%=      5-min Rain = 0
KDMS 110140Z 04009KT 15/M09 A2984 RMK A01 T01521090  RH  018%=      5-min Rain = 0
KDMS 110145Z 05009KT 15/M09 A2985 RMK A01 T01481094  RH  018%=      5-min Rain = 0
KDMS 110150Z 04008KT 14/M10 A2985 RMK A01 T01441097  RH  018%=      5-min Rain = 0
KDMS 110155Z 04007KT 14/M10 A2985 RMK A01 T01391097  RH  018%=      5-min Rain = 0
KDMS 110200Z 04007KT 13/M10 A2986 RMK A01 T01341098  RH  019%=      5-min Rain = 0
KDMS 110205Z 03007KT 13/M10 A2986 RMK A01 T01301098  RH  019%=      5-min Rain = 0
KDMS 110210Z 03007KT 13/M10 A2986 RMK A01 T01281097  RH  020%=      5-min Rain = 0
KDMS 110215Z 04008KT 13/M10 A2987 RMK A01 T01261095  RH  020%=      5-min Rain = 0
KDMS 110220Z 03008KT 12/M09 A2987 RMK A01 T01231091  RH  021%=      5-min Rain = 0
KDMS 110225Z 03009KT 12/M10 A2988 RMK A01 T01201101  RH  020%=      5-min Rain = 0
KDMS 110230Z 03011KT 13/M10 A2988 RMK A01 T01251099  RH  020%=      5-min Rain = 0
KDMS 110235Z 03010KT 13/M10 A2988 RMK A01 T01291097  RH  020%=      5-min Rain = 0
KDMS 110240Z 03011KT 13/M09 A2989 RMK A01 T01291093  RH  020%=      5-min Rain = 0
KDMS 110245Z 03012KT 13/M09 A2989 RMK A01 T01321092  RH  020%=      5-min Rain = 0
KDMS 110250Z 03010KT 13/M09 A299 RMK A01 T01301093  RH  020%=      5-min Rain = 0
KDMS 110255Z 03009KT 13/M09 A299 RMK A01 T01261092  RH  021%=      5-min Rain = 0
KDMS 110300Z 03008KT 12/M09 A2991 RMK A01 T01231090  RH  022%=      5-min Rain = 0
KDMS 110305Z 03009KT 12/M09 A2991 RMK A01 T01211089  RH  022%=      5-min Rain = 0
KDMS 110310Z 03009KT 12/M09 A2991 RMK A01 T01201092  RH  022%=      5-min Rain = 0
KDMS 110315Z 03010KT 12/M09 A2992 RMK A01 T01211091  RH  022%=      5-min Rain = 0
KDMS 110320Z 02010KT 12/M09 A2992 RMK A01 T01221091  RH  022%=      5-min Rain = 0
KDMS 110325Z 03011KT 12/M09 A2992 RMK A01 T01231090  RH  022%=      5-min Rain = 0
KDMS 110330Z 03012KT 12/M09 A2993 RMK A01 T01241089  RH  022%=      5-min Rain = 0
KDMS 110335Z 03013KT 13/M09 A2993 RMK A01 T01271088  RH  021%=      5-min Rain = 0
KDMS 110340Z 03014KT 13/M09 A2993 RMK A01 T01311089  RH  021%=      5-min Rain = 0
KDMS 110345Z 03014KT 13/M09 A2994 RMK A01 T01321089  RH  021%=      5-min Rain = 0
KDMS 110350Z 03013KT 13/M09 A2994 RMK A01 T01311089  RH  021%=      5-min Rain = 0
KDMS 110355Z 02013KT 13/M09 A2995 RMK A01 T01281089  RH  021%=      5-min Rain = 0
KDMS 110400Z 02013KT 13/M09 A2995 RMK A01 T01281089  RH  021%=      5-min Rain = 0
KDMS 110405Z 02015G20KT 13/M09 A2995 RMK A01 T01291089  RH  021%=      5-min Rain = 0
KDMS 110410Z 02016KT 13/M09 A2996 RMK A01 T01321086  RH  021%=      5-min Rain = 0
KDMS 110415Z 03016KT 13/M08 A2996 RMK A01 T01311083  RH  022%=      5-min Rain = 0
KDMS 110420Z 03017G22KT 13/M08 A2997 RMK A01 T01321079  RH  022%=      5-min Rain = 0
KDMS 110425Z 03019KT 13/M08 A2997 RMK A01 T01331077  RH  022%=      5-min Rain = 0
KDMS 110430Z 03020KT 13/M08 A2997 RMK A01 T01341078  RH  022%=      5-min Rain = 0
KDMS 110435Z 02019G24KT 13/M08 A2998 RMK A01 T01311079  RH  022%=      5-min Rain = 0
KDMS 110440Z 02019G27KT 13/M08 A2999 RMK A01 T01291079  RH  023%=      5-min Rain = 0
KDMS 110445Z 02025G34KT 13/M08 A2999 RMK A01 T01281076  RH  023%=      5-min Rain = 0
KDMS 110450Z 02025G31KT 12/M07 A30 RMK A01 T01241068  RH  026%=      5-min Rain = 0
KDMS 110455Z 02027G33KT 12/M07 A30 RMK A01 T01201065  RH  027%=      5-min Rain = 0
KDMS 110500Z 03027G33KT 12/M06 A30 RMK A01 T01171063  RH  028%=      5-min Rain = 0
KDMS 110505Z 03024G31KT 12/M06 A3001 RMK A01 T01151062  RH  028%=      5-min Rain = 0
KDMS 110510Z 03024G31KT 11/M06 A3001 RMK A01 T01131062  RH  029%=      5-min Rain = 0
KDMS 110515Z 02024G31KT 11/M06 A3002 RMK A01 T01111062  RH  029%=      5-min Rain = 0
KDMS 110520Z 03024G30KT 11/M06 A3002 RMK A01 T01101062  RH  030%=      5-min Rain = 0
KDMS 110525Z 02023G30KT 11/M06 A3003 RMK A01 T01081062  RH  030%=      5-min Rain = 0
KDMS 110530Z 03023G30KT 11/M06 A3003 RMK A01 T01071062  RH  030%=      5-min Rain = 0
KDMS 110535Z 03025G31KT 11/M06 A3003 RMK A01 T01061063  RH  030%=      5-min Rain = 0
KDMS 110540Z 03024G30KT 11/M06 A3004 RMK A01 T01051063  RH  030%=      5-min Rain = 0
KDMS 110545Z 02024G30KT 11/M06 A3004 RMK A01 T01051064  RH  030%=      5-min Rain = 0
KDMS 110550Z 02023G29KT 10/M06 A3004 RMK A01 T01041063  RH  030%=      5-min Rain = 0
KDMS 110555Z 02022G28KT 10/M06 A3005 RMK A01 T01031063  RH  031%=      5-min Rain = 0

Page generated in 0.0094 seconds.